sensor_id;sensor_type;location;lat;lon;timestamp;temperature;humidity
18781;DHT22;9519;51.890;8.970;2023-05-07T00:00:26;14.20;99.60
18781;DHT22;9519;51.890;8.970;2023-05-07T00:05:30;14.10;99.70
18781;DHT22;9519;51.890;8.970;2023-05-07T00:10:33;14.10;99.80
18781;DHT22;9519;51.890;8.970;2023-05-07T00:15:35;14.00;99.90
18781;DHT22;9519;51.890;8.970;2023-05-07T00:20:37;14.00;99.90
18781;DHT22;9519;51.890;8.970;2023-05-07T00:25:41;13.90;99.90
18781;DHT22;9519;51.890;8.970;2023-05-07T00:30:43;13.90;99.90
18781;DHT22;9519;51.890;8.970;2023-05-07T00:35:45;13.90;99.90
18781;DHT22;9519;51.890;8.970;2023-05-07T00:40:48;13.90;99.90
18781;DHT22;9519;51.890;8.970;2023-05-07T00:45:52;13.80;99.90
18781;DHT22;9519;51.890;8.970;2023-05-07T00:50:56;13.80;99.90
18781;DHT22;9519;51.890;8.970;2023-05-07T00:56:00;13.80;99.90
18781;DHT22;9519;51.890;8.970;2023-05-07T01:01:02;13.80;99.90
18781;DHT22;9519;51.890;8.970;2023-05-07T01:06:06;13.70;99.90
18781;DHT22;9519;51.890;8.970;2023-05-07T01:11:11;13.70;99.90
18781;DHT22;9519;51.890;8.970;2023-05-07T01:16:13;13.70;99.90
18781;DHT22;9519;51.890;8.970;2023-05-07T01:21:16;13.70;99.90
18781;DHT22;9519;51.890;8.970;2023-05-07T01:26:20;13.70;99.90
18781;DHT22;9519;51.890;8.970;2023-05-07T01:31:24;13.60;99.90
18781;DHT22;9519;51.890;8.970;2023-05-07T01:36:30;13.60;99.90
18781;DHT22;9519;51.890;8.970;2023-05-07T01:41:35;13.60;99.90
18781;DHT22;9519;51.890;8.970;2023-05-07T01:46:38;13.60;99.90
18781;DHT22;9519;51.890;8.970;2023-05-07T01:51:40;13.60;99.90
18781;DHT22;9519;51.890;8.970;2023-05-07T01:56:44;13.60;99.90
18781;DHT22;9519;51.890;8.970;2023-05-07T02:01:48;13.60;99.90
18781;DHT22;9519;51.890;8.970;2023-05-07T02:06:50;13.50;99.90
18781;DHT22;9519;51.890;8.970;2023-05-07T02:11:54;13.50;99.90
18781;DHT22;9519;51.890;8.970;2023-05-07T02:16:56;13.50;99.90
18781;DHT22;9519;51.890;8.970;2023-05-07T02:21:58;13.50;99.90
18781;DHT22;9519;51.890;8.970;2023-05-07T02:27:02;13.50;99.90
18781;DHT22;9519;51.890;8.970;2023-05-07T02:32:04;13.40;99.90
18781;DHT22;9519;51.890;8.970;2023-05-07T02:37:06;13.40;99.90
18781;DHT22;9519;51.890;8.970;2023-05-07T02:42:09;13.40;99.90
18781;DHT22;9519;51.890;8.970;2023-05-07T02:47:11;13.40;99.90
18781;DHT22;9519;51.890;8.970;2023-05-07T02:52:15;13.30;99.90
18781;DHT22;9519;51.890;8.970;2023-05-07T02:57:19;13.30;99.90
18781;DHT22;9519;51.890;8.970;2023-05-07T03:02:21;13.20;99.90
18781;DHT22;9519;51.890;8.970;2023-05-07T03:07:23;13.20;99.90
18781;DHT22;9519;51.890;8.970;2023-05-07T03:12:26;13.20;99.90
18781;DHT22;9519;51.890;8.970;2023-05-07T03:17:28;13.10;99.90
18781;DHT22;9519;51.890;8.970;2023-05-07T03:22:30;13.10;99.90
18781;DHT22;9519;51.890;8.970;2023-05-07T03:27:34;13.10;99.90
18781;DHT22;9519;51.890;8.970;2023-05-07T03:32:36;13.00;99.90
18781;DHT22;9519;51.890;8.970;2023-05-07T03:37:38;13.00;99.90
18781;DHT22;9519;51.890;8.970;2023-05-07T03:42:42;13.00;99.90
18781;DHT22;9519;51.890;8.970;2023-05-07T03:47:44;12.90;99.90
18781;DHT22;9519;51.890;8.970;2023-05-07T03:52:46;12.90;99.90
18781;DHT22;9519;51.890;8.970;2023-05-07T03:57:49;12.80;99.90
18781;DHT22;9519;51.890;8.970;2023-05-07T04:02:51;12.80;99.90
18781;DHT22;9519;51.890;8.970;2023-05-07T04:07:53;12.70;99.90
18781;DHT22;9519;51.890;8.970;2023-05-07T04:12:57;12.70;99.90
18781;DHT22;9519;51.890;8.970;2023-05-07T04:17:59;12.70;99.90
18781;DHT22;9519;51.890;8.970;2023-05-07T04:23:01;12.70;99.90
18781;DHT22;9519;51.890;8.970;2023-05-07T04:28:04;12.70;99.90
18781;DHT22;9519;51.890;8.970;2023-05-07T04:33:06;12.70;99.90
18781;DHT22;9519;51.890;8.970;2023-05-07T04:38:09;12.60;99.90
18781;DHT22;9519;51.890;8.970;2023-05-07T04:43:12;12.70;99.90
18781;DHT22;9519;51.890;8.970;2023-05-07T04:48:14;12.70;99.90
18781;DHT22;9519;51.890;8.970;2023-05-07T04:53:23;12.70;99.90
18781;DHT22;9519;51.890;8.970;2023-05-07T04:58:26;12.70;99.90
18781;DHT22;9519;51.890;8.970;2023-05-07T05:03:31;12.70;99.90
18781;DHT22;9519;51.890;8.970;2023-05-07T05:08:33;12.70;99.90
18781;DHT22;9519;51.890;8.970;2023-05-07T05:13:37;12.70;99.90
18781;DHT22;9519;51.890;8.970;2023-05-07T05:18:39;12.70;99.90
18781;DHT22;9519;51.890;8.970;2023-05-07T05:23:41;12.70;99.90
18781;DHT22;9519;51.890;8.970;2023-05-07T05:28:44;12.70;99.90
18781;DHT22;9519;51.890;8.970;2023-05-07T05:33:46;12.70;99.90
18781;DHT22;9519;51.890;8.970;2023-05-07T05:38:48;12.70;99.90
18781;DHT22;9519;51.890;8.970;2023-05-07T05:43:52;12.80;99.90
18781;DHT22;9519;51.890;8.970;2023-05-07T05:48:54;12.80;99.90
18781;DHT22;9519;51.890;8.970;2023-05-07T05:53:56;12.80;99.90
18781;DHT22;9519;51.890;8.970;2023-05-07T05:58:59;12.90;99.90
18781;DHT22;9519;51.890;8.970;2023-05-07T06:04:01;12.90;99.90
18781;DHT22;9519;51.890;8.970;2023-05-07T06:09:04;13.00;99.90
18781;DHT22;9519;51.890;8.970;2023-05-07T06:14:07;13.00;99.90
18781;DHT22;9519;51.890;8.970;2023-05-07T06:19:09;13.10;99.90
18781;DHT22;9519;51.890;8.970;2023-05-07T06:24:11;13.20;99.90
18781;DHT22;9519;51.890;8.970;2023-05-07T06:29:15;13.20;99.90
18781;DHT22;9519;51.890;8.970;2023-05-07T06:34:17;13.30;99.90
18781;DHT22;9519;51.890;8.970;2023-05-07T06:39:19;13.30;99.90
18781;DHT22;9519;51.890;8.970;2023-05-07T06:44:22;13.40;99.90
18781;DHT22;9519;51.890;8.970;2023-05-07T06:49:24;13.40;99.90
18781;DHT22;9519;51.890;8.970;2023-05-07T06:54:26;13.50;99.90
18781;DHT22;9519;51.890;8.970;2023-05-07T06:59:30;13.50;99.90
18781;DHT22;9519;51.890;8.970;2023-05-07T07:04:32;13.60;99.90
18781;DHT22;9519;51.890;8.970;2023-05-07T07:09:34;13.60;99.90
18781;DHT22;9519;51.890;8.970;2023-05-07T07:14:37;13.70;99.90
18781;DHT22;9519;51.890;8.970;2023-05-07T07:19:39;13.70;99.90
18781;DHT22;9519;51.890;8.970;2023-05-07T07:24:41;13.70;99.90
18781;DHT22;9519;51.890;8.970;2023-05-07T07:29:45;13.80;99.90
18781;DHT22;9519;51.890;8.970;2023-05-07T07:34:49;13.80;99.90
18781;DHT22;9519;51.890;8.970;2023-05-07T07:39:51;13.90;99.90
18781;DHT22;9519;51.890;8.970;2023-05-07T07:44:54;13.90;99.90
18781;DHT22;9519;51.890;8.970;2023-05-07T07:49:57;14.00;99.90
18781;DHT22;9519;51.890;8.970;2023-05-07T07:54:59;14.10;99.90
18781;DHT22;9519;51.890;8.970;2023-05-07T08:00:04;14.10;99.90
18781;DHT22;9519;51.890;8.970;2023-05-07T08:05:08;14.20;99.90
18781;DHT22;9519;51.890;8.970;2023-05-07T08:10:10;14.30;99.90
18781;DHT22;9519;51.890;8.970;2023-05-07T08:15:13;14.30;99.90
18781;DHT22;9519;51.890;8.970;2023-05-07T08:20:16;14.40;99.90
18781;DHT22;9519;51.890;8.970;2023-05-07T08:25:18;14.60;99.90
18781;DHT22;9519;51.890;8.970;2023-05-07T08:30:21;14.70;99.90
18781;DHT22;9519;51.890;8.970;2023-05-07T08:35:24;14.70;99.90
18781;DHT22;9519;51.890;8.970;2023-05-07T08:40:28;14.80;99.90
18781;DHT22;9519;51.890;8.970;2023-05-07T08:45:34;14.90;99.90
18781;DHT22;9519;51.890;8.970;2023-05-07T08:50:36;15.00;99.90
18781;DHT22;9519;51.890;8.970;2023-05-07T08:55:38;15.00;99.90
18781;DHT22;9519;51.890;8.970;2023-05-07T09:00:42;15.10;99.90
18781;DHT22;9519;51.890;8.970;2023-05-07T09:05:44;15.10;99.90
18781;DHT22;9519;51.890;8.970;2023-05-07T09:10:48;15.20;99.90
18781;DHT22;9519;51.890;8.970;2023-05-07T09:15:51;15.20;99.90
18781;DHT22;9519;51.890;8.970;2023-05-07T09:20:55;15.20;99.90
18781;DHT22;9519;51.890;8.970;2023-05-07T09:26:00;15.20;99.90
18781;DHT22;9519;51.890;8.970;2023-05-07T09:31:04;15.20;99.90
18781;DHT22;9519;51.890;8.970;2023-05-07T09:36:07;15.20;99.90
18781;DHT22;9519;51.890;8.970;2023-05-07T09:41:12;15.20;99.90
18781;DHT22;9519;51.890;8.970;2023-05-07T09:46:15;15.30;99.90
18781;DHT22;9519;51.890;8.970;2023-05-07T09:51:24;15.30;99.90
18781;DHT22;9519;51.890;8.970;2023-05-07T09:56:30;15.40;99.90
18781;DHT22;9519;51.890;8.970;2023-05-07T10:01:36;15.50;99.90
18781;DHT22;9519;51.890;8.970;2023-05-07T10:06:38;15.60;99.90
18781;DHT22;9519;51.890;8.970;2023-05-07T10:11:42;15.80;99.90
18781;DHT22;9519;51.890;8.970;2023-05-07T10:16:48;15.80;99.90
18781;DHT22;9519;51.890;8.970;2023-05-07T10:21:54;15.90;99.90
18781;DHT22;9519;51.890;8.970;2023-05-07T10:27:03;16.00;99.90
18781;DHT22;9519;51.890;8.970;2023-05-07T10:32:22;16.00;99.90
18781;DHT22;9519;51.890;8.970;2023-05-07T10:37:34;16.10;99.90
18781;DHT22;9519;51.890;8.970;2023-05-07T10:42:36;16.20;99.90
18781;DHT22;9519;51.890;8.970;2023-05-07T10:48:07;16.20;99.90
18781;DHT22;9519;51.890;8.970;2023-05-07T10:53:24;16.30;99.90
18781;DHT22;9519;51.890;8.970;2023-05-07T10:58:29;16.50;99.90
18781;DHT22;9519;51.890;8.970;2023-05-07T11:03:35;16.60;99.90
18781;DHT22;9519;51.890;8.970;2023-05-07T11:08:55;16.70;99.50
18781;DHT22;9519;51.890;8.970;2023-05-07T11:13:57;16.70;99.10
18781;DHT22;9519;51.890;8.970;2023-05-07T11:19:02;16.70;99.10
18781;DHT22;9519;51.890;8.970;2023-05-07T11:24:05;16.70;99.30
18781;DHT22;9519;51.890;8.970;2023-05-07T11:29:11;16.80;99.20
18781;DHT22;9519;51.890;8.970;2023-05-07T11:34:17;16.90;99.10
18781;DHT22;9519;51.890;8.970;2023-05-07T11:39:24;16.90;99.10
18781;DHT22;9519;51.890;8.970;2023-05-07T11:44:42;17.00;99.20
18781;DHT22;9519;51.890;8.970;2023-05-07T11:49:48;17.10;99.00
18781;DHT22;9519;51.890;8.970;2023-05-07T11:54:52;17.30;99.10
18781;DHT22;9519;51.890;8.970;2023-05-07T11:59:55;17.40;99.00
18781;DHT22;9519;51.890;8.970;2023-05-07T12:05:00;17.50;98.80
18781;DHT22;9519;51.890;8.970;2023-05-07T12:10:04;17.60;98.90
18781;DHT22;9519;51.890;8.970;2023-05-07T12:15:08;17.80;98.50
18781;DHT22;9519;51.890;8.970;2023-05-07T12:20:12;17.80;98.30
18781;DHT22;9519;51.890;8.970;2023-05-07T12:25:18;17.80;98.00
18781;DHT22;9519;51.890;8.970;2023-05-07T12:30:21;17.80;97.80
18781;DHT22;9519;51.890;8.970;2023-05-07T12:35:28;17.80;97.90
18781;DHT22;9519;51.890;8.970;2023-05-07T12:40:37;17.80;97.90
18781;DHT22;9519;51.890;8.970;2023-05-07T12:45:41;17.90;97.60
18781;DHT22;9519;51.890;8.970;2023-05-07T12:50:45;18.00;97.90
18781;DHT22;9519;51.890;8.970;2023-05-07T12:55:51;18.10;98.10
18781;DHT22;9519;51.890;8.970;2023-05-07T13:00:56;18.20;97.70
18781;DHT22;9519;51.890;8.970;2023-05-07T13:06:04;18.30;97.50
18781;DHT22;9519;51.890;8.970;2023-05-07T13:11:10;18.50;97.30
18781;DHT22;9519;51.890;8.970;2023-05-07T13:16:12;18.60;97.00
18781;DHT22;9519;51.890;8.970;2023-05-07T13:21:16;18.60;96.80
18781;DHT22;9519;51.890;8.970;2023-05-07T13:26:18;18.70;96.90
18781;DHT22;9519;51.890;8.970;2023-05-07T13:31:20;18.90;96.80
18781;DHT22;9519;51.890;8.970;2023-05-07T13:36:24;19.10;96.60
18781;DHT22;9519;51.890;8.970;2023-05-07T13:41:27;19.30;96.80
18781;DHT22;9519;51.890;8.970;2023-05-07T13:46:29;19.60;96.30
18781;DHT22;9519;51.890;8.970;2023-05-07T13:51:32;19.80;95.80
18781;DHT22;9519;51.890;8.970;2023-05-07T13:56:35;20.10;95.70
18781;DHT22;9519;51.890;8.970;2023-05-07T14:01:37;20.20;94.90
18781;DHT22;9519;51.890;8.970;2023-05-07T14:06:40;20.30;94.50
18781;DHT22;9519;51.890;8.970;2023-05-07T14:11:42;20.30;94.40
18781;DHT22;9519;51.890;8.970;2023-05-07T14:16:45;20.40;94.30
18781;DHT22;9519;51.890;8.970;2023-05-07T14:21:48;20.40;93.90
18781;DHT22;9519;51.890;8.970;2023-05-07T14:26:50;20.50;93.80
18781;DHT22;9519;51.890;8.970;2023-05-07T14:31:52;20.50;93.60
18781;DHT22;9519;51.890;8.970;2023-05-07T14:36:56;20.50;93.30
18781;DHT22;9519;51.890;8.970;2023-05-07T14:41:59;20.50;92.70
18781;DHT22;9519;51.890;8.970;2023-05-07T14:47:01;20.40;92.70
18781;DHT22;9519;51.890;8.970;2023-05-07T14:52:05;20.30;93.00
18781;DHT22;9519;51.890;8.970;2023-05-07T14:57:09;20.30;93.10
18781;DHT22;9519;51.890;8.970;2023-05-07T15:02:13;20.30;92.90
18781;DHT22;9519;51.890;8.970;2023-05-07T15:07:17;20.30;92.70
18781;DHT22;9519;51.890;8.970;2023-05-07T15:12:19;20.20;92.40
18781;DHT22;9519;51.890;8.970;2023-05-07T15:17:21;20.00;92.20
18781;DHT22;9519;51.890;8.970;2023-05-07T15:22:24;19.90;92.00
18781;DHT22;9519;51.890;8.970;2023-05-07T15:27:27;19.70;91.80
18781;DHT22;9519;51.890;8.970;2023-05-07T15:32:29;19.50;92.00
18781;DHT22;9519;51.890;8.970;2023-05-07T15:37:32;19.40;92.10
18781;DHT22;9519;51.890;8.970;2023-05-07T15:42:34;19.30;91.80
18781;DHT22;9519;51.890;8.970;2023-05-07T15:47:36;19.20;91.90
18781;DHT22;9519;51.890;8.970;2023-05-07T15:52:40;19.10;92.00
18781;DHT22;9519;51.890;8.970;2023-05-07T15:57:42;19.10;92.40
18781;DHT22;9519;51.890;8.970;2023-05-07T16:02:44;19.10;92.10
18781;DHT22;9519;51.890;8.970;2023-05-07T16:07:48;19.10;92.10
18781;DHT22;9519;51.890;8.970;2023-05-07T16:12:50;19.10;92.00
18781;DHT22;9519;51.890;8.970;2023-05-07T16:17:52;19.00;91.80
18781;DHT22;9519;51.890;8.970;2023-05-07T16:22:58;18.90;91.70
18781;DHT22;9519;51.890;8.970;2023-05-07T16:28:00;18.90;91.80
18781;DHT22;9519;51.890;8.970;2023-05-07T16:33:02;18.80;91.60
18781;DHT22;9519;51.890;8.970;2023-05-07T16:38:08;18.70;91.60
18781;DHT22;9519;51.890;8.970;2023-05-07T16:43:11;18.60;91.60
18781;DHT22;9519;51.890;8.970;2023-05-07T16:48:13;18.60;91.60
18781;DHT22;9519;51.890;8.970;2023-05-07T16:53:19;18.50;91.70
18781;DHT22;9519;51.890;8.970;2023-05-07T16:58:22;18.40;91.80
18781;DHT22;9519;51.890;8.970;2023-05-07T17:03:24;18.30;92.00
18781;DHT22;9519;51.890;8.970;2023-05-07T17:08:29;18.20;92.20
18781;DHT22;9519;51.890;8.970;2023-05-07T17:13:34;18.10;92.20
18781;DHT22;9519;51.890;8.970;2023-05-07T17:18:40;18.00;92.30
18781;DHT22;9519;51.890;8.970;2023-05-07T17:23:44;17.90;92.30
18781;DHT22;9519;51.890;8.970;2023-05-07T17:28:47;17.80;92.30
18781;DHT22;9519;51.890;8.970;2023-05-07T17:33:54;17.70;92.30
18781;DHT22;9519;51.890;8.970;2023-05-07T17:38:57;17.60;92.50
18781;DHT22;9519;51.890;8.970;2023-05-07T17:44:09;17.50;92.60
18781;DHT22;9519;51.890;8.970;2023-05-07T17:49:11;17.50;92.70
18781;DHT22;9519;51.890;8.970;2023-05-07T17:54:18;17.40;92.70
18781;DHT22;9519;51.890;8.970;2023-05-07T17:59:24;17.30;92.70
18781;DHT22;9519;51.890;8.970;2023-05-07T18:04:28;17.20;92.70
18781;DHT22;9519;51.890;8.970;2023-05-07T18:09:32;17.10;92.70
18781;DHT22;9519;51.890;8.970;2023-05-07T18:14:34;17.00;92.80
18781;DHT22;9519;51.890;8.970;2023-05-07T18:19:42;16.80;92.80
18781;DHT22;9519;51.890;8.970;2023-05-07T18:24:45;16.60;92.90
18781;DHT22;9519;51.890;8.970;2023-05-07T18:29:48;16.50;93.10
18781;DHT22;9519;51.890;8.970;2023-05-07T18:34:50;16.30;93.20
18781;DHT22;9519;51.890;8.970;2023-05-07T18:39:55;16.20;93.40
18781;DHT22;9519;51.890;8.970;2023-05-07T18:44:57;16.10;93.60
18781;DHT22;9519;51.890;8.970;2023-05-07T18:49:59;16.00;93.70
18781;DHT22;9519;51.890;8.970;2023-05-07T18:55:05;15.90;93.80
18781;DHT22;9519;51.890;8.970;2023-05-07T19:00:08;15.70;93.90
18781;DHT22;9519;51.890;8.970;2023-05-07T19:05:11;15.60;93.90
18781;DHT22;9519;51.890;8.970;2023-05-07T19:10:15;15.50;93.90
18781;DHT22;9519;51.890;8.970;2023-05-07T19:15:17;15.40;94.00
18781;DHT22;9519;51.890;8.970;2023-05-07T19:20:19;15.20;93.90
18781;DHT22;9519;51.890;8.970;2023-05-07T19:25:23;15.10;94.00
18781;DHT22;9519;51.890;8.970;2023-05-07T19:30:25;15.00;94.10
18781;DHT22;9519;51.890;8.970;2023-05-07T19:35:27;14.90;94.10
18781;DHT22;9519;51.890;8.970;2023-05-07T19:40:30;14.70;94.00
18781;DHT22;9519;51.890;8.970;2023-05-07T19:45:33;14.60;94.00
18781;DHT22;9519;51.890;8.970;2023-05-07T19:50:37;14.40;93.90
18781;DHT22;9519;51.890;8.970;2023-05-07T19:55:40;14.30;94.00
18781;DHT22;9519;51.890;8.970;2023-05-07T20:00:42;14.20;94.00
18781;DHT22;9519;51.890;8.970;2023-05-07T20:05:44;14.10;93.90
18781;DHT22;9519;51.890;8.970;2023-05-07T20:10:49;14.00;93.90
18781;DHT22;9519;51.890;8.970;2023-05-07T20:15:56;13.80;94.00
18781;DHT22;9519;51.890;8.970;2023-05-07T20:20:58;13.70;94.00
18781;DHT22;9519;51.890;8.970;2023-05-07T20:26:02;13.60;94.20
18781;DHT22;9519;51.890;8.970;2023-05-07T20:31:04;13.50;94.10
18781;DHT22;9519;51.890;8.970;2023-05-07T20:36:06;13.40;94.10
18781;DHT22;9519;51.890;8.970;2023-05-07T20:41:10;13.40;94.20
18781;DHT22;9519;51.890;8.970;2023-05-07T20:46:13;13.30;94.20
18781;DHT22;9519;51.890;8.970;2023-05-07T20:51:16;13.20;94.20
18781;DHT22;9519;51.890;8.970;2023-05-07T20:56:19;13.10;94.30
18781;DHT22;9519;51.890;8.970;2023-05-07T21:01:21;13.00;94.30
18781;DHT22;9519;51.890;8.970;2023-05-07T21:06:24;13.00;94.40
18781;DHT22;9519;51.890;8.970;2023-05-07T21:11:27;12.90;94.50
18781;DHT22;9519;51.890;8.970;2023-05-07T21:16:29;12.80;94.60
18781;DHT22;9519;51.890;8.970;2023-05-07T21:21:31;12.70;94.60
18781;DHT22;9519;51.890;8.970;2023-05-07T21:26:35;12.70;94.70
18781;DHT22;9519;51.890;8.970;2023-05-07T21:31:37;12.60;94.80
18781;DHT22;9519;51.890;8.970;2023-05-07T21:36:39;12.50;94.80
18781;DHT22;9519;51.890;8.970;2023-05-07T21:41:42;12.50;94.90
18781;DHT22;9519;51.890;8.970;2023-05-07T21:46:44;12.40;95.00
18781;DHT22;9519;51.890;8.970;2023-05-07T21:51:46;12.40;95.00
18781;DHT22;9519;51.890;8.970;2023-05-07T21:56:49;12.30;95.10
18781;DHT22;9519;51.890;8.970;2023-05-07T22:01:51;12.20;95.10
18781;DHT22;9519;51.890;8.970;2023-05-07T22:06:54;12.20;95.20
18781;DHT22;9519;51.890;8.970;2023-05-07T22:11:57;12.10;95.30
18781;DHT22;9519;51.890;8.970;2023-05-07T22:16:59;12.10;95.40
18781;DHT22;9519;51.890;8.970;2023-05-07T22:22:01;12.00;95.40
18781;DHT22;9519;51.890;8.970;2023-05-07T22:27:05;12.00;95.50
18781;DHT22;9519;51.890;8.970;2023-05-07T22:32:07;11.90;95.60
18781;DHT22;9519;51.890;8.970;2023-05-07T22:37:09;11.90;95.70
18781;DHT22;9519;51.890;8.970;2023-05-07T22:42:12;11.90;95.80
18781;DHT22;9519;51.890;8.970;2023-05-07T22:47:14;11.80;95.90
18781;DHT22;9519;51.890;8.970;2023-05-07T22:52:16;11.80;96.30
18781;DHT22;9519;51.890;8.970;2023-05-07T22:57:19;11.70;96.00
18781;DHT22;9519;51.890;8.970;2023-05-07T23:02:21;11.70;96.10
18781;DHT22;9519;51.890;8.970;2023-05-07T23:07:26;11.80;96.20
18781;DHT22;9519;51.890;8.970;2023-05-07T23:12:29;11.70;96.20
18781;DHT22;9519;51.890;8.970;2023-05-07T23:17:31;11.70;96.20
18781;DHT22;9519;51.890;8.970;2023-05-07T23:22:34;11.60;96.30
18781;DHT22;9519;51.890;8.970;2023-05-07T23:27:38;11.60;96.40
18781;DHT22;9519;51.890;8.970;2023-05-07T23:32:40;11.60;96.50
18781;DHT22;9519;51.890;8.970;2023-05-07T23:37:42;11.50;96.60
18781;DHT22;9519;51.890;8.970;2023-05-07T23:42:45;11.50;97.00
18781;DHT22;9519;51.890;8.970;2023-05-07T23:47:48;11.50;96.80
18781;DHT22;9519;51.890;8.970;2023-05-07T23:52:50;11.40;96.80
18781;DHT22;9519;51.890;8.970;2023-05-07T23:57:53;11.40;97.20
